Terminal Aerodrome Forecast
Issued by NWS Dallas/Fort Worth, TX

Home | Current Version | Previous Version | Text Only | Print | Product List | Glossary On
Versions: 1 2 3 4 5 6 7 8 9 10 11 12 13 14 15 16 17 18 19 20 21 22 23 24 25 26 27 28 29 30 31 32 33 34 35 36 37 38 39 40 41 42
000
FTUS44 KFWD 251504 AAA
TAFACT
TAF AMD
KACT 251504Z 2515/2612 16013KT P6SM BKN015
     FM251800 18015KT 6SM -SHRA VCTS BKN030CB
     FM252000 21011KT 4SM TSRA BKN020CB OVC080
      TEMPO 2520/2522 VRB20G30KT 2SM +TSRA OVC010CB
     FM260000 22011KT P6SM SCT025 BKN050
     FM260800 17011KT P6SM BKN015=

USA.gov is the U.S. government's official web portal to all federal, state and local government web resources and services.